Time;durP1;ratioP1;P1;durP2;ratioP2;P2;SDS_P1;SDS_P2;PMS_P1;PMS_P2;Temp;Humidity;BMP_temperature;BMP_pressure;BME280_temperature;BME280_humidity;BME280_pressure;Samples;Min_cycle;Max_cycle;Signal;HPM_P1;HPM_P2
2020/12/17 00:02:03;;;;;;;8.25;5.40;;;10.30;99.90;;;;;;4993986;28;20026;-77
2020/12/17 00:04:29;;;;;;;8.30;5.18;;;10.30;99.90;;;;;;4977485;28;20034;-76
2020/12/17 00:06:55;;;;;;;8.15;5.30;;;10.20;99.90;;;;;;4994634;28;20114;-77
2020/12/17 00:09:22;;;;;;;7.50;5.53;;;10.20;99.90;;;;;;4980241;28;20034;-77
2020/12/17 00:11:48;;;;;;;8.63;5.13;;;10.20;99.90;;;;;;4995158;28;20399;-77
2020/12/17 00:14:14;;;;;;;8.52;5.40;;;10.20;99.90;;;;;;4991238;28;20092;-77
2020/12/17 00:16:39;;;;;;;7.75;5.15;;;10.10;99.90;;;;;;4997944;28;20038;-78
2020/12/17 00:19:05;;;;;;;8.15;5.10;;;10.10;99.90;;;;;;4978856;28;20029;-78
2020/12/17 00:21:32;;;;;;;10.90;5.72;;;10.10;99.90;;;;;;4986303;28;20041;-79
2020/12/17 00:23:58;;;;;;;7.47;5.15;;;10.10;99.90;;;;;;4981714;28;20030;-78
2020/12/17 00:26:26;;;;;;;6.53;4.95;;;10.10;99.90;;;;;;4994479;28;20018;-78
2020/12/17 00:28:55;;;;;;;7.18;5.15;;;10.10;99.90;;;;;;4986956;28;20050;-78
2020/12/17 00:31:21;;;;;;;8.65;4.82;;;10.10;99.90;;;;;;4990812;28;20073;-78
2020/12/17 00:33:48;;;;;;;10.20;5.53;;;10.10;99.90;;;;;;4980323;28;20447;-79
2020/12/17 00:36:21;;;;;;;8.40;5.72;;;10.10;99.90;;;;;;4981578;28;20023;-78
2020/12/17 00:38:47;;;;;;;6.38;4.95;;;10.10;99.90;;;;;;4992645;28;20391;-78
2020/12/17 00:41:16;;;;;;;6.80;5.00;;;10.10;99.90;;;;;;4995332;28;20086;-78
2020/12/17 00:43:43;;;;;;;6.97;5.45;;;10.10;99.90;;;;;;4992442;28;20046;-78
2020/12/17 00:46:13;;;;;;;9.57;5.35;;;10.00;99.90;;;;;;4989986;28;20395;-78
2020/12/17 00:48:38;;;;;;;7.22;5.10;;;10.00;99.90;;;;;;4987636;28;20065;-78
2020/12/17 00:51:04;;;;;;;8.77;5.38;;;10.00;99.90;;;;;;5000921;28;20031;-79
2020/12/17 00:53:30;;;;;;;6.80;5.47;;;10.00;99.90;;;;;;5001745;28;20030;-79
2020/12/17 00:55:55;;;;;;;8.70;5.15;;;10.00;99.90;;;;;;5010763;28;20050;-79
2020/12/17 00:58:21;;;;;;;8.10;5.45;;;10.00;99.90;;;;;;5004940;28;20026;-78
2020/12/17 01:00:47;;;;;;;12.35;5.50;;;10.00;99.90;;;;;;4997813;28;20029;-78
2020/12/17 01:03:12;;;;;;;9.82;5.60;;;10.00;99.90;;;;;;5006568;28;20033;-79
2020/12/17 01:05:38;;;;;;;7.53;5.53;;;10.00;99.90;;;;;;5013609;28;20026;-78
2020/12/17 01:08:03;;;;;;;7.03;5.13;;;10.10;99.90;;;;;;5004275;28;20070;-79
2020/12/17 01:10:29;;;;;;;9.20;5.25;;;10.10;99.90;;;;;;4985756;28;20037;-79
2020/12/17 01:12:55;;;;;;;6.60;5.47;;;10.10;99.90;;;;;;4998674;28;20091;-78
2020/12/17 01:15:20;;;;;;;8.45;5.72;;;10.00;99.90;;;;;;4996302;28;20042;-78
2020/12/17 01:17:46;;;;;;;8.88;5.45;;;10.00;99.90;;;;;;4993748;28;20030;-78
2020/12/17 01:20:12;;;;;;;6.53;4.65;;;10.00;99.90;;;;;;4985493;28;20139;-78
2020/12/17 01:22:37;;;;;;;6.95;4.47;;;10.00;99.90;;;;;;4992326;28;20045;-78
2020/12/17 01:25:04;;;;;;;7.38;5.07;;;10.00;99.90;;;;;;4992830;28;20470;-79
2020/12/17 01:27:30;;;;;;;6.47;5.15;;;10.00;99.90;;;;;;4987852;28;20455;-78
2020/12/17 01:29:56;;;;;;;8.95;4.80;;;10.00;99.90;;;;;;4990666;28;20030;-78
2020/12/17 01:32:22;;;;;;;5.78;4.70;;;10.00;99.90;;;;;;4989847;28;20027;-78
2020/12/17 01:34:48;;;;;;;6.30;5.07;;;10.00;99.90;;;;;;4995631;28;20434;-78
2020/12/17 01:37:14;;;;;;;7.45;5.07;;;10.00;99.90;;;;;;4990396;28;20042;-79
2020/12/17 01:39:39;;;;;;;9.60;5.65;;;10.10;99.90;;;;;;4984252;28;20046;-79
2020/12/17 01:42:05;;;;;;;6.32;5.13;;;10.10;99.90;;;;;;4989906;28;20116;-79
2020/12/17 01:44:31;;;;;;;6.07;5.38;;;10.10;99.90;;;;;;4985370;28;20037;-79
2020/12/17 01:46:56;;;;;;;8.25;5.38;;;10.10;99.90;;;;;;4986906;28;20069;-78
2020/12/17 01:49:24;;;;;;;8.82;5.03;;;10.10;99.90;;;;;;4986807;28;20085;-78
2020/12/17 01:51:50;;;;;;;6.38;5.22;;;10.10;99.90;;;;;;4984068;28;20023;-78
2020/12/17 01:54:16;;;;;;;9.75;6.07;;;10.10;99.90;;;;;;4987825;28;20037;-79
2020/12/17 01:56:47;;;;;;;11.32;5.25;;;10.10;99.90;;;;;;4986851;28;20031;-79
2020/12/17 01:59:22;;;;;;;7.13;5.25;;;10.10;99.90;;;;;;4984007;28;20030;-78
2020/12/17 02:01:50;;;;;;;7.05;4.78;;;10.10;99.90;;;;;;4982099;28;20401;-78
2020/12/17 02:04:16;;;;;;;6.38;4.57;;;10.20;99.90;;;;;;4985129;28;20069;-78
2020/12/17 02:06:43;;;;;;;8.18;4.32;;;10.10;99.90;;;;;;4986864;28;20093;-78
2020/12/17 02:09:09;;;;;;;7.10;4.55;;;10.20;99.90;;;;;;4986931;28;20033;-78
2020/12/17 02:11:34;;;;;;;7.90;4.70;;;10.20;99.90;;;;;;4984073;28;20047;-78
2020/12/17 02:14:00;;;;;;;12.88;4.82;;;10.20;99.90;;;;;;4988152;28;20545;-78
2020/12/17 02:16:25;;;;;;;6.30;4.85;;;10.10;99.90;;;;;;4993189;28;20386;-79
2020/12/17 02:18:52;;;;;;;6.47;4.75;;;10.10;99.90;;;;;;4982134;28;20117;-78
2020/12/17 02:21:19;;;;;;;7.93;4.60;;;10.10;99.90;;;;;;4987011;28;20463;-78
2020/12/17 02:23:45;;;;;;;6.18;4.65;;;10.10;99.90;;;;;;4994707;28;20546;-78
2020/12/17 02:26:11;;;;;;;6.28;4.22;;;10.10;99.90;;;;;;4995384;28;20054;-78
2020/12/17 02:28:36;;;;;;;6.35;4.57;;;10.10;99.90;;;;;;4990119;28;20061;-78
2020/12/17 02:31:02;;;;;;;9.63;5.65;;;10.00;99.90;;;;;;4979373;28;20034;-78
2020/12/17 02:33:28;;;;;;;6.47;4.22;;;10.00;99.90;;;;;;4989585;28;20387;-78
2020/12/17 02:35:54;;;;;;;6.15;4.10;;;10.00;99.90;;;;;;4994758;28;20018;-78
2020/12/17 02:38:20;;;;;;;6.55;5.38;;;10.10;99.90;;;;;;4988136;28;20022;-78
2020/12/17 02:40:46;;;;;;;8.23;4.10;;;10.10;99.90;;;;;;4987902;28;20398;-78
2020/12/17 02:43:13;;;;;;;5.80;4.57;;;10.10;99.90;;;;;;4987852;28;20059;-78
2020/12/17 02:45:50;;;;;;;5.85;5.13;;;10.00;99.90;;;;;;4980476;28;20109;-78
2020/12/17 02:48:17;;;;;;;5.63;4.40;;;10.00;99.90;;;;;;4989312;28;20121;-78
2020/12/17 02:50:44;;;;;;;5.97;4.30;;;10.10;99.90;;;;;;4992372;28;20533;-78
2020/12/17 02:53:10;;;;;;;7.90;5.00;;;10.10;99.90;;;;;;4984790;28;20029;-78
2020/12/17 02:55:36;;;;;;;8.32;4.25;;;10.10;99.90;;;;;;4994504;28;20026;-78
2020/12/17 02:58:03;;;;;;;5.80;4.18;;;10.10;99.90;;;;;;4991330;28;20092;-77
2020/12/17 03:00:28;;;;;;;5.82;4.65;;;10.10;99.90;;;;;;4990110;28;20035;-78
2020/12/17 03:02:54;;;;;;;7.72;4.70;;;10.10;99.90;;;;;;4992481;28;20033;-78
2020/12/17 03:05:19;;;;;;;7.55;4.63;;;10.10;99.90;;;;;;4991191;28;20027;-78
2020/12/17 03:07:45;;;;;;;6.10;4.47;;;10.10;99.90;;;;;;4991239;28;20089;-78
2020/12/17 03:10:12;;;;;;;9.35;4.65;;;10.10;99.90;;;;;;4986457;28;20062;-78
2020/12/17 03:12:42;;;;;;;7.90;4.70;;;10.10;99.90;;;;;;4990488;28;20034;-78
2020/12/17 03:15:09;;;;;;;6.85;4.25;;;10.10;99.90;;;;;;4990318;28;20030;-78
2020/12/17 03:17:36;;;;;;;8.25;4.60;;;10.10;99.90;;;;;;4991474;28;20022;-78
2020/12/17 03:20:03;;;;;;;10.38;4.80;;;10.00;99.90;;;;;;4991868;28;20375;-78
2020/12/17 03:22:29;;;;;;;6.55;4.45;;;10.00;99.90;;;;;;4996816;28;20083;-78
2020/12/17 03:24:54;;;;;;;9.30;4.50;;;10.00;99.90;;;;;;4986390;28;20113;-78
2020/12/17 03:27:20;;;;;;;7.65;5.18;;;10.00;99.90;;;;;;4994959;28;20519;-77
2020/12/17 03:29:46;;;;;;;7.40;4.57;;;10.00;99.90;;;;;;4977254;28;20034;-78
2020/12/17 03:32:11;;;;;;;7.72;5.25;;;9.90;99.90;;;;;;4988178;28;20025;-78
2020/12/17 03:34:37;;;;;;;6.65;4.57;;;9.90;99.90;;;;;;4994891;28;20030;-78
2020/12/17 03:37:03;;;;;;;9.65;4.68;;;9.90;99.90;;;;;;4994497;28;20030;-78
2020/12/17 03:39:28;;;;;;;6.93;5.45;;;10.00;99.90;;;;;;5009439;28;20026;-78
2020/12/17 03:41:54;;;;;;;7.00;4.70;;;9.90;99.90;;;;;;5009521;28;20491;-78
2020/12/17 03:44:19;;;;;;;8.70;4.72;;;10.00;99.90;;;;;;5004475;28;20041;-77
2020/12/17 03:46:45;;;;;;;8.73;5.07;;;10.00;99.90;;;;;;5014242;28;20123;-77
2020/12/17 03:49:11;;;;;;;7.10;5.55;;;9.90;99.90;;;;;;5015323;28;20045;-78
2020/12/17 03:51:37;;;;;;;10.68;5.50;;;9.90;99.90;;;;;;5010157;28;20445;-77
2020/12/17 03:54:04;;;;;;;11.65;5.95;;;9.90;99.90;;;;;;5002284;28;20055;-79
2020/12/17 03:56:30;;;;;;;7.70;6.05;;;9.90;99.90;;;;;;4997423;28;20026;-79
2020/12/17 03:58:56;;;;;;;9.23;6.18;;;9.90;99.90;;;;;;5005800;28;20102;-77
2020/12/17 04:01:22;;;;;;;9.57;6.20;;;9.90;99.90;;;;;;5007466;28;20039;-77
2020/12/17 04:03:47;;;;;;;12.40;6.97;;;9.90;99.90;;;;;;4983775;28;20462;-78
2020/12/17 04:06:13;;;;;;;9.05;6.32;;;9.80;99.90;;;;;;4990097;28;20046;-78
2020/12/17 04:08:42;;;;;;;8.15;6.07;;;9.80;99.90;;;;;;4988022;28;20026;-78
2020/12/17 04:11:11;;;;;;;10.57;6.72;;;9.80;99.90;;;;;;4990869;28;20026;-78
2020/12/17 04:13:36;;;;;;;12.45;7.63;;;9.90;99.90;;;;;;4995091;28;20042;-78
2020/12/17 04:16:03;;;;;;;17.50;8.02;;;9.90;99.90;;;;;;4989783;28;20444;-79
2020/12/17 04:18:29;;;;;;;12.43;7.88;;;9.90;99.90;;;;;;4984272;28;20034;-79
2020/12/17 04:20:54;;;;;;;12.10;7.75;;;9.80;99.90;;;;;;4986907;28;20037;-79
2020/12/17 04:23:21;;;;;;;13.40;8.60;;;9.90;99.90;;;;;;4988822;28;20030;-78
2020/12/17 04:25:46;;;;;;;10.93;7.75;;;9.80;99.90;;;;;;4992812;28;20038;-78
2020/12/17 04:28:12;;;;;;;12.25;7.65;;;9.90;99.90;;;;;;5007769;28;20065;-79
2020/12/17 04:30:38;;;;;;;10.75;7.68;;;9.90;99.90;;;;;;4994106;28;20118;-79
2020/12/17 04:33:03;;;;;;;11.90;8.27;;;9.90;99.90;;;;;;4991880;28;20422;-79
2020/12/17 04:35:29;;;;;;;11.05;7.80;;;9.90;99.90;;;;;;4984464;28;20495;-79
2020/12/17 04:37:55;;;;;;;11.73;8.13;;;9.90;99.90;;;;;;4979636;28;20547;-79
2020/12/17 04:40:20;;;;;;;13.85;8.43;;;9.90;99.90;;;;;;4975662;28;20065;-79
2020/12/17 04:42:48;;;;;;;15.02;8.70;;;9.90;99.90;;;;;;4990346;28;20041;-79
2020/12/17 04:45:15;;;;;;;13.57;8.15;;;9.90;99.90;;;;;;4993792;28;20434;-79
2020/12/17 04:47:44;;;;;;;13.32;7.63;;;9.90;99.90;;;;;;4982600;28;20502;-80
2020/12/17 04:50:14;;;;;;;17.77;8.80;;;9.90;99.90;;;;;;4988093;28;20023;-78
2020/12/17 04:52:40;;;;;;;12.70;8.68;;;9.90;99.90;;;;;;5003587;28;20085;-78
2020/12/17 04:55:07;;;;;;;12.98;8.55;;;10.00;99.90;;;;;;4975842;28;20022;-77
2020/12/17 04:57:35;;;;;;;12.05;8.40;;;10.00;99.90;;;;;;4978509;28;20596;-77
2020/12/17 05:00:01;;;;;;;12.32;8.50;;;10.10;99.90;;;;;;4989934;28;20042;-78
2020/12/17 05:02:26;;;;;;;13.95;8.70;;;9.90;99.90;;;;;;4982130;28;20034;-78
2020/12/17 05:04:54;;;;;;;13.65;9.10;;;9.90;99.90;;;;;;4988105;28;20032;-78
2020/12/17 05:07:24;;;;;;;10.65;8.43;;;9.90;99.90;;;;;;4990503;28;20037;-78
2020/12/17 05:09:51;;;;;;;13.60;9.65;;;9.90;99.90;;;;;;4993522;28;20018;-78
2020/12/17 05:12:18;;;;;;;17.13;10.55;;;10.00;99.90;;;;;;4988007;28;20053;-78
2020/12/17 05:14:44;;;;;;;13.32;9.00;;;10.00;99.90;;;;;;4987317;28;20030;-77
2020/12/17 05:17:10;;;;;;;16.42;9.95;;;10.00;99.90;;;;;;4987158;28;20030;-78
2020/12/17 05:19:36;;;;;;;13.13;9.40;;;10.00;99.90;;;;;;4978615;28;20383;-78
2020/12/17 05:22:04;;;;;;;13.80;9.25;;;10.00;99.90;;;;;;4980003;28;20034;-79
2020/12/17 05:24:30;;;;;;;13.50;9.48;;;10.00;99.90;;;;;;4983155;28;20042;-78
2020/12/17 05:26:58;;;;;;;17.27;10.95;;;10.00;99.90;;;;;;4980720;28;20018;-78
2020/12/17 05:29:24;;;;;;;13.82;9.73;;;10.00;99.90;;;;;;4979241;28;20430;-78
2020/12/17 05:31:50;;;;;;;15.32;9.85;;;10.00;99.90;;;;;;4995830;28;20019;-78
2020/12/17 05:34:16;;;;;;;15.98;10.27;;;10.00;99.90;;;;;;4990538;28;20039;-79
2020/12/17 05:36:46;;;;;;;14.60;10.00;;;9.90;99.90;;;;;;4989107;28;20061;-78
2020/12/17 05:39:14;;;;;;;17.75;10.70;;;9.90;99.90;;;;;;4994234;28;20027;-78
2020/12/17 05:41:41;;;;;;;;;;;9.90;99.90;;;;;;4994211;28;20034;-78
2020/12/17 05:44:10;;;;;;;15.23;9.98;;;9.90;99.90;;;;;;4988691;28;19964;-79
2020/12/17 05:46:37;;;;;;;17.05;11.13;;;9.90;99.90;;;;;;4979088;28;20030;-79
2020/12/17 05:49:11;;;;;;;16.00;10.65;;;9.80;99.90;;;;;;4991739;28;20042;-78
2020/12/17 05:51:38;;;;;;;17.40;10.35;;;9.80;99.90;;;;;;4978732;28;20494;-79
2020/12/17 05:54:10;;;;;;;14.57;10.10;;;9.80;99.90;;;;;;4994369;28;20109;-79
2020/12/17 05:56:37;;;;;;;17.45;11.40;;;9.80;99.90;;;;;;4989946;28;20034;-79
2020/12/17 05:59:04;;;;;;;17.30;11.07;;;9.70;99.90;;;;;;5006937;28;20066;-78
2020/12/17 06:01:31;;;;;;;22.67;13.07;;;9.80;99.90;;;;;;5004998;28;20019;-78
2020/12/17 06:03:57;;;;;;;19.58;12.15;;;9.70;99.90;;;;;;5011946;28;20041;-77
2020/12/17 06:06:24;;;;;;;17.88;12.00;;;9.80;99.90;;;;;;5011052;28;20034;-77
2020/12/17 06:08:52;;;;;;;24.38;12.55;;;9.80;99.90;;;;;;5012553;28;20114;-78
2020/12/17 06:11:22;;;;;;;18.35;11.65;;;9.70;99.90;;;;;;5018124;28;20037;-78
2020/12/17 06:13:57;;;;;;;18.88;12.05;;;9.70;99.90;;;;;;4988951;28;20046;-79
2020/12/17 06:16:25;;;;;;;19.58;12.60;;;9.70;99.90;;;;;;5001227;28;20050;-80
2020/12/17 06:18:58;;;;;;;19.77;12.30;;;9.70;99.90;;;;;;5000892;28;20054;-78
2020/12/17 06:21:25;;;;;;;21.20;12.27;;;9.70;99.90;;;;;;4984114;28;20027;-77
2020/12/17 06:24:01;;;;;;;17.70;12.00;;;9.70;99.90;;;;;;4989861;28;20045;-78
2020/12/17 06:26:27;;;;;;;23.35;13.07;;;9.70;99.90;;;;;;4995025;28;20027;-77
2020/12/17 06:28:53;;;;;;;19.05;12.77;;;9.70;99.90;;;;;;4995654;28;20042;-78
2020/12/17 06:31:27;;;;;;;19.05;11.63;;;9.70;99.90;;;;;;4978486;28;20431;-78
2020/12/17 06:34:04;;;;;;;21.42;13.73;;;9.70;99.90;;;;;;4983331;28;20518;-78
2020/12/17 06:36:44;;;;;;;19.40;12.50;;;9.60;99.90;;;;;;4994926;28;20549;-77
2020/12/17 06:39:10;;;;;;;19.02;12.23;;;9.50;99.90;;;;;;4978813;28;20109;-78
2020/12/17 06:41:36;;;;;;;22.92;12.13;;;9.50;99.90;;;;;;4990377;28;20030;-78
2020/12/17 06:44:29;;;;;;;18.17;11.75;;;9.50;99.90;;;;;;4986133;28;20390;-78
2020/12/17 06:47:02;;;;;;;19.67;11.52;;;9.60;99.90;;;;;;4983538;28;20019;-78
2020/12/17 06:49:30;;;;;;;18.45;12.10;;;9.50;99.90;;;;;;4992059;28;20066;-79
2020/12/17 06:52:03;;;;;;;;;;;9.50;99.90;;;;;;4991737;28;20061;-79
2020/12/17 06:54:31;;;;;;;17.63;11.15;;;9.50;99.90;;;;;;4992120;28;19909;-78
2020/12/17 06:57:10;;;;;;;22.20;12.88;;;9.40;99.90;;;;;;4987240;28;20022;-78
2020/12/17 06:59:38;;;;;;;22.30;12.10;;;9.40;99.90;;;;;;4992934;28;20034;-78
2020/12/17 07:02:05;;;;;;;21.05;11.85;;;9.40;99.90;;;;;;4994200;28;20041;-78
2020/12/17 07:04:43;;;;;;;20.77;11.98;;;9.40;99.90;;;;;;4994911;28;20039;-78
2020/12/17 07:07:15;;;;;;;19.02;11.57;;;9.40;99.90;;;;;;4996913;28;20035;-78
2020/12/17 07:09:41;;;;;;;21.80;11.50;;;9.50;99.90;;;;;;4992916;28;20027;-78
2020/12/17 07:12:10;;;;;;;21.15;12.60;;;9.40;99.90;;;;;;4987897;28;20062;-79
2020/12/17 07:14:35;;;;;;;17.88;11.30;;;9.40;99.90;;;;;;4991148;28;20050;-79
2020/12/17 07:17:06;;;;;;;21.98;12.25;;;9.40;99.90;;;;;;4989602;28;20403;-79
2020/12/17 07:19:48;;;;;;;22.52;12.23;;;9.40;99.90;;;;;;4976286;28;20550;-77
2020/12/17 07:22:18;;;;;;;19.13;11.60;;;9.40;99.90;;;;;;4989322;28;20125;-78
2020/12/17 07:24:46;;;;;;;20.02;12.60;;;9.40;99.90;;;;;;4979817;28;20031;-78
2020/12/17 07:27:22;;;;;;;20.70;12.88;;;9.40;99.90;;;;;;4978529;28;20077;-78
2020/12/17 07:30:11;;;;;;;20.65;12.02;;;9.40;99.90;;;;;;4992115;28;20019;-79
2020/12/17 07:32:46;;;;;;;24.00;12.55;;;9.40;99.90;;;;;;4992458;28;20026;-79
2020/12/17 07:35:11;;;;;;;23.65;12.35;;;9.40;99.90;;;;;;4992077;28;20027;-79
2020/12/17 07:37:40;;;;;;;25.63;13.65;;;9.40;99.90;;;;;;4976246;28;20039;-78
2020/12/17 07:40:11;;;;;;;21.13;12.32;;;9.40;99.90;;;;;;4988725;28;20398;-78
2020/12/17 07:42:38;;;;;;;21.65;12.32;;;9.40;99.90;;;;;;4993836;28;20042;-77
2020/12/17 07:45:05;;;;;;;18.98;12.30;;;9.50;99.90;;;;;;4995633;28;20030;-77
2020/12/17 07:47:30;;;;;;;25.48;12.43;;;9.50;99.90;;;;;;4989948;28;20121;-78
2020/12/17 07:49:57;;;;;;;18.25;11.10;;;9.50;99.90;;;;;;4995189;28;20101;-78
2020/12/17 07:52:33;;;;;;;20.10;12.85;;;9.50;99.90;;;;;;4990246;28;20403;-78
2020/12/17 07:55:00;;;;;;;20.50;12.88;;;9.50;99.90;;;;;;4991514;28;20022;-78
2020/12/17 07:57:26;;;;;;;21.83;12.60;;;9.50;99.90;;;;;;4992960;28;20026;-79
2020/12/17 07:59:52;;;;;;;21.38;11.75;;;9.60;99.90;;;;;;4992972;28;20046;-79
2020/12/17 08:02:18;;;;;;;21.17;12.88;;;9.60;99.90;;;;;;4994518;28;20030;-77
2020/12/17 08:04:48;;;;;;;26.05;14.05;;;9.60;99.90;;;;;;5003573;28;20453;-78
2020/12/17 08:07:14;;;;;;;23.88;13.05;;;9.60;99.90;;;;;;4995356;28;20030;-79
2020/12/17 08:09:40;;;;;;;21.80;13.40;;;9.60;99.90;;;;;;5001524;28;20036;-76
2020/12/17 08:12:11;;;;;;;23.10;13.25;;;9.50;99.90;;;;;;4985684;28;20039;-78
2020/12/17 08:14:38;;;;;;;25.70;14.75;;;9.50;99.90;;;;;;4996181;28;20022;-77
2020/12/17 08:17:05;;;;;;;27.60;14.05;;;9.60;99.90;;;;;;4999507;28;20038;-77
2020/12/17 08:19:31;;;;;;;26.63;14.37;;;9.60;99.90;;;;;;5005575;28;20047;-79
2020/12/17 08:21:59;;;;;;;24.20;14.50;;;9.70;99.90;;;;;;5016831;28;20014;-77
2020/12/17 08:24:26;;;;;;;21.27;13.27;;;9.70;99.90;;;;;;5011541;28;20030;-78
2020/12/17 08:26:54;;;;;;;21.58;12.25;;;9.60;99.90;;;;;;5006009;28;20010;-78
2020/12/17 08:29:19;;;;;;;21.45;12.38;;;9.60;99.90;;;;;;5011462;28;20043;-78
2020/12/17 08:31:45;;;;;;;22.95;13.45;;;9.60;99.90;;;;;;5022037;28;20096;-78
2020/12/17 08:34:11;;;;;;;18.40;12.07;;;9.70;99.90;;;;;;5015771;28;20045;-77
2020/12/17 08:36:37;;;;;;;25.20;13.80;;;9.60;99.90;;;;;;5020958;28;20018;-78
2020/12/17 08:39:09;;;;;;;22.35;13.18;;;9.70;99.90;;;;;;5020169;28;20069;-77
2020/12/17 08:41:41;;;;;;;24.35;12.57;;;9.70;99.90;;;;;;5004188;28;20022;-78
2020/12/17 08:44:08;;;;;;;21.58;12.93;;;9.70;99.90;;;;;;4998084;28;20030;-78
2020/12/17 08:46:56;;;;;;;21.40;11.77;;;9.70;99.90;;;;;;4995949;28;20033;-79
2020/12/17 08:49:24;;;;;;;20.10;10.80;;;9.80;99.90;;;;;;4996015;28;20026;-78
2020/12/17 08:51:49;;;;;;;16.50;10.65;;;9.80;99.90;;;;;;5000163;28;20021;-80
2020/12/17 08:54:44;;;;;;;17.55;11.02;;;9.80;99.90;;;;;;5007147;28;20061;-79
2020/12/17 08:57:11;;;;;;;15.63;10.48;;;9.80;99.90;;;;;;4985901;28;20096;-75
2020/12/17 08:59:38;;;;;;;15.35;10.38;;;9.80;99.90;;;;;;5003158;28;20022;-79
2020/12/17 09:02:05;;;;;;;14.65;9.93;;;9.80;99.90;;;;;;4994801;28;20092;-79
2020/12/17 09:04:31;;;;;;;18.50;10.02;;;9.90;99.90;;;;;;4994582;28;20045;-80
2020/12/17 09:07:01;;;;;;;20.05;10.10;;;9.90;99.90;;;;;;5005379;28;20026;-79
2020/12/17 09:09:29;;;;;;;17.70;9.85;;;9.90;99.90;;;;;;4994128;28;20074;-78
2020/12/17 09:11:57;;;;;;;16.35;9.13;;;10.00;99.90;;;;;;4993832;28;20047;-80
2020/12/17 09:14:29;;;;;;;;;;;9.90;99.90;;;;;;4993218;28;20113;-81
2020/12/17 09:17:08;;;;;;;15.75;8.45;;;9.90;99.90;;;;;;4987865;28;19917;-79
2020/12/17 09:19:33;;;;;;;13.55;7.93;;;10.00;99.90;;;;;;4984824;28;20041;-79
2020/12/17 09:22:00;;;;;;;16.15;7.85;;;10.00;99.90;;;;;;4992518;28;20475;-79
2020/12/17 09:24:27;;;;;;;14.53;7.90;;;9.90;99.90;;;;;;4987710;28;20031;-81
2020/12/17 09:26:54;;;;;;;22.20;8.47;;;10.00;99.90;;;;;;4985173;28;20023;-78
2020/12/17 09:29:20;;;;;;;12.95;7.22;;;10.00;99.90;;;;;;5011162;28;20438;-78
2020/12/17 09:31:46;;;;;;;10.35;6.25;;;10.00;99.90;;;;;;4997616;28;20038;-78
2020/12/17 09:34:14;;;;;;;13.07;7.13;;;10.10;99.90;;;;;;4984932;28;20018;-78
2020/12/17 09:36:40;;;;;;;;;;;10.20;99.90;;;;;;4996220;28;20089;-77
2020/12/17 09:39:14;;;;;;;10.23;5.63;;;10.20;99.90;;;;;;4997948;28;19910;-78
2020/12/17 09:41:53;;;;;;;10.13;6.35;;;10.20;99.90;;;;;;4996132;28;20035;-78
2020/12/17 09:44:30;;;;;;;9.63;5.70;;;10.20;99.90;;;;;;4979715;28;20030;-78
2020/12/17 09:46:57;;;;;;;15.38;6.30;;;10.20;99.90;;;;;;4987232;28;20541;-79
2020/12/17 09:49:28;;;;;;;18.63;7.28;;;10.30;99.90;;;;;;4988656;28;20359;-79
2020/12/17 09:52:11;;;;;;;13.77;5.53;;;10.20;99.90;;;;;;4986456;28;20038;-79
2020/12/17 09:54:40;;;;;;;14.98;5.07;;;10.20;99.90;;;;;;5007825;28;20018;-79
2020/12/17 09:57:10;;;;;;;9.80;5.38;;;10.20;99.90;;;;;;4978237;28;20065;-78
2020/12/17 09:59:37;;;;;;;9.70;4.88;;;10.20;99.90;;;;;;4983247;28;20488;-78
2020/12/17 10:02:06;;;;;;;9.43;5.45;;;10.30;99.90;;;;;;4992735;28;20084;-79
2020/12/17 10:04:32;;;;;;;11.27;5.60;;;10.40;99.90;;;;;;4990099;28;20030;-78
2020/12/17 10:06:58;;;;;;;10.98;5.32;;;10.40;99.90;;;;;;4992489;28;20487;-78
2020/12/17 10:09:25;;;;;;;10.25;5.20;;;10.20;99.90;;;;;;4996110;28;20019;-79
2020/12/17 10:11:54;;;;;;;14.07;6.03;;;10.20;99.90;;;;;;4993462;28;20082;-78
2020/12/17 10:14:20;;;;;;;10.10;4.53;;;10.20;99.90;;;;;;4994376;28;20038;-78
2020/12/17 10:16:46;;;;;;;9.43;5.18;;;10.30;99.90;;;;;;4988192;28;20169;-78
2020/12/17 10:19:11;;;;;;;11.23;4.88;;;10.30;99.90;;;;;;4997085;28;20038;-78
2020/12/17 10:21:38;;;;;;;14.90;5.13;;;10.40;99.90;;;;;;4998952;28;20029;-78
2020/12/17 10:24:07;;;;;;;9.65;4.80;;;10.50;99.90;;;;;;4991691;28;20023;-78
2020/12/17 10:26:33;;;;;;;14.25;4.78;;;10.50;99.90;;;;;;4993615;28;20058;-78
2020/12/17 10:29:00;;;;;;;16.60;4.25;;;10.60;99.90;;;;;;4989813;28;20038;-78
2020/12/17 10:31:26;;;;;;;9.80;4.05;;;10.70;99.90;;;;;;4994879;28;20002;-78
2020/12/17 10:33:53;;;;;;;9.48;5.70;;;10.70;99.90;;;;;;4997074;28;20382;-78
2020/12/17 10:36:18;;;;;;;12.20;4.28;;;10.70;99.90;;;;;;5003528;28;20101;-78
2020/12/17 10:38:44;;;;;;;8.18;5.03;;;10.80;99.90;;;;;;5010630;28;20018;-78
2020/12/17 10:41:10;;;;;;;10.32;4.75;;;10.80;99.90;;;;;;5016918;28;20010;-78
2020/12/17 10:43:36;;;;;;;6.68;3.90;;;10.80;99.90;;;;;;5016123;28;20090;-77
2020/12/17 10:46:02;;;;;;;16.52;4.55;;;10.80;99.90;;;;;;5015392;28;20026;-79
2020/12/17 10:48:27;;;;;;;8.52;4.25;;;10.80;99.90;;;;;;5000657;28;20106;-78
2020/12/17 10:50:53;;;;;;;10.63;3.83;;;10.70;99.90;;;;;;5002430;28;20110;-79
2020/12/17 10:53:19;;;;;;;7.05;3.65;;;10.70;99.90;;;;;;4993129;28;20042;-78
2020/12/17 10:55:44;;;;;;;7.95;4.05;;;10.70;99.90;;;;;;4987247;28;20029;-78
2020/12/17 10:58:11;;;;;;;8.88;3.65;;;10.60;99.90;;;;;;4992823;28;20042;-77
2020/12/17 11:00:37;;;;;;;13.17;5.17;;;10.60;99.90;;;;;;4991763;28;20538;-77
2020/12/17 11:03:03;;;;;;;17.02;4.55;;;10.60;99.90;;;;;;5007705;28;20106;-78
2020/12/17 11:05:29;;;;;;;11.98;4.22;;;10.70;99.90;;;;;;4989170;28;20042;-78
2020/12/17 11:07:55;;;;;;;13.98;4.13;;;10.70;99.90;;;;;;4992155;28;20042;-78
2020/12/17 11:10:21;;;;;;;6.53;3.80;;;10.70;99.90;;;;;;4989565;28;20483;-77
2020/12/17 11:12:46;;;;;;;7.05;3.63;;;10.80;99.90;;;;;;4989791;28;20030;-78
2020/12/17 11:15:12;;;;;;;14.13;4.38;;;10.80;99.90;;;;;;4989471;28;20102;-77
2020/12/17 11:17:37;;;;;;;12.75;4.90;;;10.80;99.90;;;;;;4989733;28;20034;-78
2020/12/17 11:20:03;;;;;;;15.75;4.30;;;10.90;99.90;;;;;;4989845;28;20022;-78
2020/12/17 11:22:30;;;;;;;10.20;4.07;;;11.00;99.90;;;;;;4996384;28;20042;-78
2020/12/17 11:24:56;;;;;;;10.82;5.63;;;11.00;99.90;;;;;;4991087;28;20084;-79
2020/12/17 11:27:21;;;;;;;16.02;4.53;;;10.90;99.90;;;;;;4988892;28;20418;-79
2020/12/17 11:29:47;;;;;;;11.43;4.60;;;11.00;99.90;;;;;;4988663;28;20475;-78
2020/12/17 11:32:13;;;;;;;6.35;4.00;;;11.00;99.90;;;;;;4988467;28;20395;-79
2020/12/17 11:34:38;;;;;;;11.68;4.50;;;11.00;99.90;;;;;;5017349;28;20114;-77
2020/12/17 11:37:04;;;;;;;8.73;3.78;;;11.10;99.90;;;;;;4994659;28;20031;-78
2020/12/17 11:39:29;;;;;;;10.20;4.25;;;11.10;99.90;;;;;;4984818;28;20126;-79
2020/12/17 11:41:55;;;;;;;14.88;4.25;;;11.00;99.90;;;;;;4997113;28;20471;-77
2020/12/17 11:44:25;;;;;;;10.55;4.10;;;11.00;99.90;;;;;;4992924;28;20022;-80
2020/12/17 11:46:52;;;;;;;14.25;3.83;;;10.90;99.90;;;;;;4995415;28;20030;-80
2020/12/17 11:49:17;;;;;;;16.60;3.63;;;10.90;99.90;;;;;;4997681;28;20037;-78
2020/12/17 11:51:43;;;;;;;11.90;4.25;;;11.00;99.90;;;;;;4989316;28;20086;-78
2020/12/17 11:54:09;;;;;;;25.88;4.97;;;10.90;99.90;;;;;;4998282;28;20102;-78
2020/12/17 11:56:34;;;;;;;11.40;3.80;;;10.90;99.90;;;;;;4998867;28;20038;-78
2020/12/17 11:59:00;;;;;;;20.98;5.28;;;10.90;99.90;;;;;;4994733;28;20750;-78
2020/12/17 12:01:30;;;;;;;12.10;3.55;;;11.00;99.90;;;;;;4983967;28;20546;-78
2020/12/17 12:03:55;;;;;;;5.32;3.10;;;11.10;99.90;;;;;;5009585;28;20094;-79
2020/12/17 12:06:21;;;;;;;12.07;3.60;;;11.10;99.90;;;;;;4995379;28;20498;-78
2020/12/17 12:08:46;;;;;;;13.57;3.83;;;11.10;99.90;;;;;;4994490;28;20037;-79
2020/12/17 12:11:12;;;;;;;15.77;3.83;;;11.10;99.90;;;;;;4994854;28;20485;-78
2020/12/17 12:13:38;;;;;;;20.52;3.60;;;11.00;99.90;;;;;;4995163;28;20057;-79
2020/12/17 12:16:03;;;;;;;8.45;2.80;;;11.00;99.90;;;;;;4995367;28;20379;-79
2020/12/17 12:18:30;;;;;;;11.77;4.63;;;10.90;99.90;;;;;;4986134;28;20030;-79
2020/12/17 12:20:59;;;;;;;12.98;4.65;;;10.90;99.90;;;;;;4980988;28;20065;-80
2020/12/17 12:23:25;;;;;;;21.90;4.35;;;11.00;99.90;;;;;;4992313;28;20121;-79
2020/12/17 12:25:51;;;;;;;10.25;3.33;;;11.00;99.90;;;;;;4993645;28;20073;-80
2020/12/17 12:28:16;;;;;;;10.65;3.42;;;11.00;99.90;;;;;;4992771;28;20569;-81
2020/12/17 12:30:42;;;;;;;14.40;3.80;;;10.90;99.90;;;;;;4990243;28;20379;-78
2020/12/17 12:33:07;;;;;;;14.55;3.50;;;10.90;99.90;;;;;;4992785;28;20077;-78
2020/12/17 12:35:34;;;;;;;12.13;3.05;;;10.90;99.90;;;;;;4995637;28;20038;-81
2020/12/17 12:37:59;;;;;;;9.43;3.83;;;11.00;99.90;;;;;;4994503;28;20038;-80
2020/12/17 12:40:25;;;;;;;7.35;3.47;;;11.00;99.90;;;;;;4993301;28;20022;-81
2020/12/17 12:42:51;;;;;;;10.73;3.67;;;11.00;99.90;;;;;;4977919;28;20030;-79
2020/12/17 12:45:16;;;;;;;12.40;5.68;;;11.10;99.90;;;;;;4990723;28;20107;-80